sensor_id;sensor_type;location;lat;lon;timestamp;P1;durP1;ratioP1;P2;durP2;ratioP2
60054;SDS011;45930;53.514;55.904;2023-07-28T00:00:53;28.02;;;21.52;;
60054;SDS011;45930;53.514;55.904;2023-07-28T00:01:53;31.02;;;21.60;;
60054;SDS011;45930;53.514;55.904;2023-07-28T00:02:54;28.92;;;21.58;;
60054;SDS011;45930;53.514;55.904;2023-07-28T00:03:55;32.80;;;20.23;;
60054;SDS011;45930;53.514;55.904;2023-07-28T00:04:58;36.15;;;20.60;;
60054;SDS011;45930;53.514;55.904;2023-07-28T00:05:59;34.90;;;21.25;;
60054;SDS011;45930;53.514;55.904;2023-07-28T00:06:59;29.10;;;21.00;;
60054;SDS011;45930;53.514;55.904;2023-07-28T00:08:00;30.58;;;20.55;;
60054;SDS011;45930;53.514;55.904;2023-07-28T00:09:01;28.98;;;21.40;;
60054;SDS011;45930;53.514;55.904;2023-07-28T00:10:02;33.15;;;22.50;;
60054;SDS011;45930;53.514;55.904;2023-07-28T00:11:13;32.15;;;21.40;;
60054;SDS011;45930;53.514;55.904;2023-07-28T00:12:15;36.83;;;22.35;;
60054;SDS011;45930;53.514;55.904;2023-07-28T00:13:16;38.00;;;22.77;;
60054;SDS011;45930;53.514;55.904;2023-07-28T00:14:16;31.05;;;21.98;;
60054;SDS011;45930;53.514;55.904;2023-07-28T00:15:17;33.45;;;21.92;;
60054;SDS011;45930;53.514;55.904;2023-07-28T00:16:18;29.42;;;21.23;;
60054;SDS011;45930;53.514;55.904;2023-07-28T00:17:19;33.53;;;22.73;;
60054;SDS011;45930;53.514;55.904;2023-07-28T00:18:20;32.70;;;20.55;;
60054;SDS011;45930;53.514;55.904;2023-07-28T00:19:21;29.42;;;22.52;;
60054;SDS011;45930;53.514;55.904;2023-07-28T00:20:22;30.98;;;22.33;;
60054;SDS011;45930;53.514;55.904;2023-07-28T00:21:23;32.65;;;22.83;;
60054;SDS011;45930;53.514;55.904;2023-07-28T00:22:24;37.95;;;23.17;;
60054;SDS011;45930;53.514;55.904;2023-07-28T00:23:25;33.05;;;22.13;;
60054;SDS011;45930;53.514;55.904;2023-07-28T00:24:26;31.50;;;22.48;;
60054;SDS011;45930;53.514;55.904;2023-07-28T00:25:27;35.60;;;24.17;;
60054;SDS011;45930;53.514;55.904;2023-07-28T00:26:27;30.65;;;21.65;;
60054;SDS011;45930;53.514;55.904;2023-07-28T00:27:28;33.25;;;21.63;;
60054;SDS011;45930;53.514;55.904;2023-07-28T00:28:29;34.58;;;22.10;;
60054;SDS011;45930;53.514;55.904;2023-07-28T00:29:30;33.13;;;21.48;;
60054;SDS011;45930;53.514;55.904;2023-07-28T00:30:30;36.28;;;22.60;;
60054;SDS011;45930;53.514;55.904;2023-07-28T00:31:32;32.03;;;22.42;;
60054;SDS011;45930;53.514;55.904;2023-07-28T00:32:33;32.35;;;21.13;;
60054;SDS011;45930;53.514;55.904;2023-07-28T00:33:33;41.03;;;22.40;;
60054;SDS011;45930;53.514;55.904;2023-07-28T00:34:34;30.02;;;22.50;;
60054;SDS011;45930;53.514;55.904;2023-07-28T00:35:35;39.53;;;22.80;;
60054;SDS011;45930;53.514;55.904;2023-07-28T00:36:36;39.92;;;23.73;;
60054;SDS011;45930;53.514;55.904;2023-07-28T00:37:36;37.10;;;25.17;;
60054;SDS011;45930;53.514;55.904;2023-07-28T00:38:37;38.95;;;23.75;;
60054;SDS011;45930;53.514;55.904;2023-07-28T00:39:38;39.17;;;24.13;;
60054;SDS011;45930;53.514;55.904;2023-07-28T00:40:39;40.45;;;24.60;;
60054;SDS011;45930;53.514;55.904;2023-07-28T00:41:40;37.95;;;25.35;;
60054;SDS011;45930;53.514;55.904;2023-07-28T00:42:40;32.95;;;24.08;;
60054;SDS011;45930;53.514;55.904;2023-07-28T00:43:41;34.78;;;23.80;;
60054;SDS011;45930;53.514;55.904;2023-07-28T00:44:42;35.15;;;24.77;;
60054;SDS011;45930;53.514;55.904;2023-07-28T00:45:43;37.00;;;23.20;;
60054;SDS011;45930;53.514;55.904;2023-07-28T00:46:44;39.70;;;24.83;;
60054;SDS011;45930;53.514;55.904;2023-07-28T00:47:45;34.08;;;22.30;;
60054;SDS011;45930;53.514;55.904;2023-07-28T00:48:46;39.58;;;25.08;;
60054;SDS011;45930;53.514;55.904;2023-07-28T00:49:47;39.58;;;24.48;;
60054;SDS011;45930;53.514;55.904;2023-07-28T00:50:48;40.83;;;24.88;;
60054;SDS011;45930;53.514;55.904;2023-07-28T00:51:49;38.63;;;23.45;;
60054;SDS011;45930;53.514;55.904;2023-07-28T00:52:51;36.75;;;22.98;;
60054;SDS011;45930;53.514;55.904;2023-07-28T00:53:52;37.50;;;21.95;;
60054;SDS011;45930;53.514;55.904;2023-07-28T00:54:54;35.25;;;24.63;;
60054;SDS011;45930;53.514;55.904;2023-07-28T00:55:55;37.38;;;23.08;;
60054;SDS011;45930;53.514;55.904;2023-07-28T00:56:56;37.88;;;24.58;;
60054;SDS011;45930;53.514;55.904;2023-07-28T00:57:57;36.75;;;24.20;;
60054;SDS011;45930;53.514;55.904;2023-07-28T00:58:58;38.80;;;24.23;;
60054;SDS011;45930;53.514;55.904;2023-07-28T00:59:58;37.78;;;24.08;;
60054;SDS011;45930;53.514;55.904;2023-07-28T01:01:00;35.90;;;23.40;;
60054;SDS011;45930;53.514;55.904;2023-07-28T01:02:01;35.08;;;25.80;;
60054;SDS011;45930;53.514;55.904;2023-07-28T01:03:02;40.75;;;24.85;;
60054;SDS011;45930;53.514;55.904;2023-07-28T01:04:04;42.38;;;26.98;;
60054;SDS011;45930;53.514;55.904;2023-07-28T01:05:05;32.65;;;24.13;;
60054;SDS011;45930;53.514;55.904;2023-07-28T01:06:13;38.95;;;24.83;;
60054;SDS011;45930;53.514;55.904;2023-07-28T01:07:27;33.25;;;23.45;;
60054;SDS011;45930;53.514;55.904;2023-07-28T01:08:48;37.25;;;24.52;;
60054;SDS011;45930;53.514;55.904;2023-07-28T01:10:05;40.50;;;26.58;;
60054;SDS011;45930;53.514;55.904;2023-07-28T01:11:11;34.03;;;24.95;;
60054;SDS011;45930;53.514;55.904;2023-07-28T01:12:12;44.38;;;26.40;;
60054;SDS011;45930;53.514;55.904;2023-07-28T01:13:13;36.67;;;25.58;;
60054;SDS011;45930;53.514;55.904;2023-07-28T01:14:13;38.05;;;25.33;;
60054;SDS011;45930;53.514;55.904;2023-07-28T01:15:14;35.83;;;23.25;;
60054;SDS011;45930;53.514;55.904;2023-07-28T01:16:15;35.28;;;22.10;;
60054;SDS011;45930;53.514;55.904;2023-07-28T01:17:16;35.28;;;23.10;;
60054;SDS011;45930;53.514;55.904;2023-07-28T01:18:18;36.35;;;23.40;;
60054;SDS011;45930;53.514;55.904;2023-07-28T01:19:20;37.22;;;22.77;;
60054;SDS011;45930;53.514;55.904;2023-07-28T01:20:22;34.72;;;22.63;;
60054;SDS011;45930;53.514;55.904;2023-07-28T01:21:28;34.13;;;22.77;;
60054;SDS011;45930;53.514;55.904;2023-07-28T01:25:32;35.90;;;24.13;;
60054;SDS011;45930;53.514;55.904;2023-07-28T01:26:43;37.45;;;24.40;;
60054;SDS011;45930;53.514;55.904;2023-07-28T01:27:45;39.97;;;24.50;;
60054;SDS011;45930;53.514;55.904;2023-07-28T01:28:46;34.30;;;23.73;;
60054;SDS011;45930;53.514;55.904;2023-07-28T01:29:48;34.63;;;23.45;;
60054;SDS011;45930;53.514;55.904;2023-07-28T01:30:49;36.05;;;22.58;;
60054;SDS011;45930;53.514;55.904;2023-07-28T01:31:51;34.30;;;23.63;;
60054;SDS011;45930;53.514;55.904;2023-07-28T01:32:54;36.67;;;23.55;;
60054;SDS011;45930;53.514;55.904;2023-07-28T01:33:56;38.55;;;23.92;;
60054;SDS011;45930;53.514;55.904;2023-07-28T01:34:57;35.25;;;23.65;;
60054;SDS011;45930;53.514;55.904;2023-07-28T01:35:57;33.70;;;23.90;;
60054;SDS011;45930;53.514;55.904;2023-07-28T01:37:01;36.85;;;23.50;;
60054;SDS011;45930;53.514;55.904;2023-07-28T01:38:02;33.33;;;23.23;;
60054;SDS011;45930;53.514;55.904;2023-07-28T01:39:02;37.13;;;23.88;;
60054;SDS011;45930;53.514;55.904;2023-07-28T01:40:03;35.50;;;24.20;;
60054;SDS011;45930;53.514;55.904;2023-07-28T01:41:05;40.47;;;23.42;;
60054;SDS011;45930;53.514;55.904;2023-07-28T01:42:06;39.63;;;24.92;;
60054;SDS011;45930;53.514;55.904;2023-07-28T01:43:06;40.97;;;25.38;;
60054;SDS011;45930;53.514;55.904;2023-07-28T01:44:07;36.53;;;24.95;;
60054;SDS011;45930;53.514;55.904;2023-07-28T01:45:08;40.53;;;25.23;;
60054;SDS011;45930;53.514;55.904;2023-07-28T01:46:09;40.70;;;24.75;;
60054;SDS011;45930;53.514;55.904;2023-07-28T01:47:10;37.40;;;24.83;;
60054;SDS011;45930;53.514;55.904;2023-07-28T01:48:11;41.88;;;26.20;;
60054;SDS011;45930;53.514;55.904;2023-07-28T01:49:12;41.85;;;25.45;;
60054;SDS011;45930;53.514;55.904;2023-07-28T01:50:13;40.88;;;25.95;;
60054;SDS011;45930;53.514;55.904;2023-07-28T01:51:14;39.05;;;26.27;;
60054;SDS011;45930;53.514;55.904;2023-07-28T01:52:14;40.13;;;23.92;;
60054;SDS011;45930;53.514;55.904;2023-07-28T01:53:15;37.72;;;24.40;;
60054;SDS011;45930;53.514;55.904;2023-07-28T01:54:16;37.83;;;24.80;;
60054;SDS011;45930;53.514;55.904;2023-07-28T01:55:17;40.17;;;24.67;;
60054;SDS011;45930;53.514;55.904;2023-07-28T01:56:17;38.42;;;25.90;;
60054;SDS011;45930;53.514;55.904;2023-07-28T01:57:18;38.03;;;26.15;;
60054;SDS011;45930;53.514;55.904;2023-07-28T01:58:19;38.90;;;24.75;;
60054;SDS011;45930;53.514;55.904;2023-07-28T01:59:20;39.03;;;25.38;;
60054;SDS011;45930;53.514;55.904;2023-07-28T02:00:21;40.47;;;25.85;;
60054;SDS011;45930;53.514;55.904;2023-07-28T02:01:23;46.00;;;28.30;;
60054;SDS011;45930;53.514;55.904;2023-07-28T02:02:23;41.17;;;27.23;;
60054;SDS011;45930;53.514;55.904;2023-07-28T02:03:24;42.40;;;25.83;;
60054;SDS011;45930;53.514;55.904;2023-07-28T02:04:25;42.72;;;27.10;;
60054;SDS011;45930;53.514;55.904;2023-07-28T02:05:26;43.65;;;27.40;;
60054;SDS011;45930;53.514;55.904;2023-07-28T02:06:27;40.95;;;25.98;;
60054;SDS011;45930;53.514;55.904;2023-07-28T02:07:28;47.17;;;26.50;;
60054;SDS011;45930;53.514;55.904;2023-07-28T02:08:29;43.65;;;27.60;;
60054;SDS011;45930;53.514;55.904;2023-07-28T02:09:30;37.47;;;25.92;;
60054;SDS011;45930;53.514;55.904;2023-07-28T02:10:30;40.25;;;26.02;;
60054;SDS011;45930;53.514;55.904;2023-07-28T02:11:32;38.65;;;26.95;;
60054;SDS011;45930;53.514;55.904;2023-07-28T02:12:32;42.80;;;26.10;;
60054;SDS011;45930;53.514;55.904;2023-07-28T02:13:34;46.67;;;29.92;;
60054;SDS011;45930;53.514;55.904;2023-07-28T02:14:34;44.55;;;27.45;;
60054;SDS011;45930;53.514;55.904;2023-07-28T02:15:36;43.25;;;28.20;;
60054;SDS011;45930;53.514;55.904;2023-07-28T02:16:37;43.92;;;27.52;;
60054;SDS011;45930;53.514;55.904;2023-07-28T02:17:38;43.55;;;26.98;;
60054;SDS011;45930;53.514;55.904;2023-07-28T02:18:38;44.05;;;25.60;;
60054;SDS011;45930;53.514;55.904;2023-07-28T02:19:39;43.42;;;27.40;;
60054;SDS011;45930;53.514;55.904;2023-07-28T02:20:40;47.10;;;27.63;;
60054;SDS011;45930;53.514;55.904;2023-07-28T02:21:41;49.28;;;28.17;;
60054;SDS011;45930;53.514;55.904;2023-07-28T02:22:42;45.22;;;29.75;;
60054;SDS011;45930;53.514;55.904;2023-07-28T02:23:43;48.88;;;29.33;;
60054;SDS011;45930;53.514;55.904;2023-07-28T02:24:44;43.63;;;28.98;;
60054;SDS011;45930;53.514;55.904;2023-07-28T02:25:45;51.50;;;31.00;;
60054;SDS011;45930;53.514;55.904;2023-07-28T02:26:46;49.10;;;29.25;;
60054;SDS011;45930;53.514;55.904;2023-07-28T02:27:47;48.42;;;31.52;;
60054;SDS011;45930;53.514;55.904;2023-07-28T02:28:47;50.00;;;31.52;;
60054;SDS011;45930;53.514;55.904;2023-07-28T02:29:48;56.20;;;32.50;;
60054;SDS011;45930;53.514;55.904;2023-07-28T02:30:49;55.92;;;32.70;;
60054;SDS011;45930;53.514;55.904;2023-07-28T02:31:50;54.40;;;32.95;;
60054;SDS011;45930;53.514;55.904;2023-07-28T02:32:51;53.28;;;33.58;;
60054;SDS011;45930;53.514;55.904;2023-07-28T02:33:51;57.95;;;33.72;;
60054;SDS011;45930;53.514;55.904;2023-07-28T02:34:52;60.40;;;36.38;;
60054;SDS011;45930;53.514;55.904;2023-07-28T02:35:53;62.17;;;36.85;;
60054;SDS011;45930;53.514;55.904;2023-07-28T02:36:54;55.47;;;35.90;;
60054;SDS011;45930;53.514;55.904;2023-07-28T02:37:54;62.05;;;36.15;;
60054;SDS011;45930;53.514;55.904;2023-07-28T02:38:55;52.72;;;35.75;;
60054;SDS011;45930;53.514;55.904;2023-07-28T02:39:56;59.53;;;37.35;;
60054;SDS011;45930;53.514;55.904;2023-07-28T02:40:57;65.28;;;35.13;;
60054;SDS011;45930;53.514;55.904;2023-07-28T02:41:57;60.65;;;35.78;;
60054;SDS011;45930;53.514;55.904;2023-07-28T02:42:58;58.20;;;36.00;;
60054;SDS011;45930;53.514;55.904;2023-07-28T02:43:59;55.30;;;35.85;;
60054;SDS011;45930;53.514;55.904;2023-07-28T02:45:00;59.05;;;34.78;;
60054;SDS011;45930;53.514;55.904;2023-07-28T02:46:01;58.13;;;35.58;;
60054;SDS011;45930;53.514;55.904;2023-07-28T02:47:02;60.08;;;35.30;;
60054;SDS011;45930;53.514;55.904;2023-07-28T02:48:03;58.20;;;33.55;;
60054;SDS011;45930;53.514;55.904;2023-07-28T02:49:04;54.13;;;34.75;;
60054;SDS011;45930;53.514;55.904;2023-07-28T02:50:05;53.42;;;32.53;;
60054;SDS011;45930;53.514;55.904;2023-07-28T02:51:06;57.13;;;34.17;;
60054;SDS011;45930;53.514;55.904;2023-07-28T02:52:07;51.15;;;31.20;;
60054;SDS011;45930;53.514;55.904;2023-07-28T02:53:08;56.13;;;32.55;;
60054;SDS011;45930;53.514;55.904;2023-07-28T02:54:08;54.85;;;32.38;;
60054;SDS011;45930;53.514;55.904;2023-07-28T02:55:09;50.58;;;32.05;;
60054;SDS011;45930;53.514;55.904;2023-07-28T02:56:10;53.75;;;31.67;;
60054;SDS011;45930;53.514;55.904;2023-07-28T02:57:11;50.40;;;31.30;;
60054;SDS011;45930;53.514;55.904;2023-07-28T02:58:12;51.67;;;33.67;;
60054;SDS011;45930;53.514;55.904;2023-07-28T02:59:13;52.88;;;32.17;;
60054;SDS011;45930;53.514;55.904;2023-07-28T03:00:14;55.92;;;32.65;;
60054;SDS011;45930;53.514;55.904;2023-07-28T03:01:15;51.03;;;31.67;;
60054;SDS011;45930;53.514;55.904;2023-07-28T03:02:15;50.92;;;30.85;;
60054;SDS011;45930;53.514;55.904;2023-07-28T03:03:16;51.33;;;33.20;;
60054;SDS011;45930;53.514;55.904;2023-07-28T03:04:18;51.70;;;31.65;;
60054;SDS011;45930;53.514;55.904;2023-07-28T03:05:20;54.05;;;30.80;;
60054;SDS011;45930;53.514;55.904;2023-07-28T03:06:21;46.30;;;30.60;;
60054;SDS011;45930;53.514;55.904;2023-07-28T03:07:22;50.35;;;31.08;;
60054;SDS011;45930;53.514;55.904;2023-07-28T03:08:23;50.03;;;30.48;;
60054;SDS011;45930;53.514;55.904;2023-07-28T03:09:23;48.60;;;31.58;;
60054;SDS011;45930;53.514;55.904;2023-07-28T03:10:24;46.60;;;30.80;;
60054;SDS011;45930;53.514;55.904;2023-07-28T03:11:25;47.47;;;30.00;;
60054;SDS011;45930;53.514;55.904;2023-07-28T03:12:26;45.45;;;27.38;;
60054;SDS011;45930;53.514;55.904;2023-07-28T03:13:27;42.22;;;27.90;;
60054;SDS011;45930;53.514;55.904;2023-07-28T03:14:28;43.40;;;27.98;;
60054;SDS011;45930;53.514;55.904;2023-07-28T03:15:29;43.40;;;26.65;;
60054;SDS011;45930;53.514;55.904;2023-07-28T03:16:30;42.80;;;27.05;;
60054;SDS011;45930;53.514;55.904;2023-07-28T03:17:31;38.28;;;24.83;;
60054;SDS011;45930;53.514;55.904;2023-07-28T03:18:32;37.78;;;26.05;;
60054;SDS011;45930;53.514;55.904;2023-07-28T03:19:33;42.40;;;25.90;;
60054;SDS011;45930;53.514;55.904;2023-07-28T03:20:34;42.25;;;25.63;;
60054;SDS011;45930;53.514;55.904;2023-07-28T03:21:34;37.10;;;26.38;;
60054;SDS011;45930;53.514;55.904;2023-07-28T03:22:35;37.20;;;24.42;;
60054;SDS011;45930;53.514;55.904;2023-07-28T03:23:36;37.80;;;25.33;;
60054;SDS011;45930;53.514;55.904;2023-07-28T03:24:37;40.72;;;26.15;;
60054;SDS011;45930;53.514;55.904;2023-07-28T03:25:38;43.22;;;25.30;;
60054;SDS011;45930;53.514;55.904;2023-07-28T03:26:38;44.28;;;28.45;;
60054;SDS011;45930;53.514;55.904;2023-07-28T03:27:39;40.70;;;28.00;;
60054;SDS011;45930;53.514;55.904;2023-07-28T03:28:40;37.45;;;25.88;;
60054;SDS011;45930;53.514;55.904;2023-07-28T03:29:41;40.22;;;26.77;;
60054;SDS011;45930;53.514;55.904;2023-07-28T03:30:41;39.47;;;25.35;;
60054;SDS011;45930;53.514;55.904;2023-07-28T03:31:42;37.85;;;24.77;;
60054;SDS011;45930;53.514;55.904;2023-07-28T03:32:43;41.03;;;25.23;;
60054;SDS011;45930;53.514;55.904;2023-07-28T03:33:44;35.67;;;25.40;;
60054;SDS011;45930;53.514;55.904;2023-07-28T03:34:45;39.30;;;26.45;;
60054;SDS011;45930;53.514;55.904;2023-07-28T03:35:45;41.53;;;26.15;;
60054;SDS011;45930;53.514;55.904;2023-07-28T03:36:54;42.08;;;26.95;;
60054;SDS011;45930;53.514;55.904;2023-07-28T03:37:54;37.65;;;24.77;;
60054;SDS011;45930;53.514;55.904;2023-07-28T03:38:55;37.00;;;26.52;;
60054;SDS011;45930;53.514;55.904;2023-07-28T03:39:56;39.75;;;26.27;;
60054;SDS011;45930;53.514;55.904;2023-07-28T03:40:57;38.90;;;24.67;;
60054;SDS011;45930;53.514;55.904;2023-07-28T03:41:58;38.05;;;24.63;;
60054;SDS011;45930;53.514;55.904;2023-07-28T03:42:59;38.63;;;25.58;;
60054;SDS011;45930;53.514;55.904;2023-07-28T03:44:03;43.80;;;26.23;;
60054;SDS011;45930;53.514;55.904;2023-07-28T03:45:04;40.65;;;25.05;;
60054;SDS011;45930;53.514;55.904;2023-07-28T03:46:05;34.42;;;24.50;;
60054;SDS011;45930;53.514;55.904;2023-07-28T03:47:06;44.92;;;24.92;;
60054;SDS011;45930;53.514;55.904;2023-07-28T03:48:07;39.42;;;23.92;;
60054;SDS011;45930;53.514;55.904;2023-07-28T03:49:07;41.42;;;24.85;;
60054;SDS011;45930;53.514;55.904;2023-07-28T03:50:08;40.28;;;24.92;;
60054;SDS011;45930;53.514;55.904;2023-07-28T03:51:09;35.65;;;25.90;;
60054;SDS011;45930;53.514;55.904;2023-07-28T03:52:13;39.83;;;24.38;;
60054;SDS011;45930;53.514;55.904;2023-07-28T03:53:14;39.28;;;24.45;;
60054;SDS011;45930;53.514;55.904;2023-07-28T03:54:14;35.17;;;23.35;;
60054;SDS011;45930;53.514;55.904;2023-07-28T03:55:15;38.70;;;25.10;;
60054;SDS011;45930;53.514;55.904;2023-07-28T03:56:16;36.05;;;24.33;;
60054;SDS011;45930;53.514;55.904;2023-07-28T03:57:17;40.28;;;25.67;;
60054;SDS011;45930;53.514;55.904;2023-07-28T03:58:18;36.55;;;23.80;;
60054;SDS011;45930;53.514;55.904;2023-07-28T03:59:18;37.65;;;24.42;;
60054;SDS011;45930;53.514;55.904;2023-07-28T04:00:19;36.17;;;23.50;;
60054;SDS011;45930;53.514;55.904;2023-07-28T04:01:20;35.67;;;23.38;;
60054;SDS011;45930;53.514;55.904;2023-07-28T04:02:22;37.47;;;24.65;;
60054;SDS011;45930;53.514;55.904;2023-07-28T04:03:23;36.75;;;24.90;;
60054;SDS011;45930;53.514;55.904;2023-07-28T04:04:23;39.33;;;24.77;;
60054;SDS011;45930;53.514;55.904;2023-07-28T04:05:24;34.92;;;24.00;;
60054;SDS011;45930;53.514;55.904;2023-07-28T04:06:41;34.78;;;24.90;;
60054;SDS011;45930;53.514;55.904;2023-07-28T04:07:46;37.08;;;24.58;;
60054;SDS011;45930;53.514;55.904;2023-07-28T04:08:47;38.95;;;24.45;;
60054;SDS011;45930;53.514;55.904;2023-07-28T04:09:47;39.17;;;24.23;;
60054;SDS011;45930;53.514;55.904;2023-07-28T04:10:48;40.75;;;24.02;;
60054;SDS011;45930;53.514;55.904;2023-07-28T04:11:49;41.85;;;24.45;;
60054;SDS011;45930;53.514;55.904;2023-07-28T04:12:50;35.30;;;24.02;;
60054;SDS011;45930;53.514;55.904;2023-07-28T04:13:51;35.83;;;24.73;;
60054;SDS011;45930;53.514;55.904;2023-07-28T04:14:51;47.67;;;24.85;;
60054;SDS011;45930;53.514;55.904;2023-07-28T04:15:52;37.33;;;23.88;;
60054;SDS011;45930;53.514;55.904;2023-07-28T04:16:53;40.72;;;24.55;;
60054;SDS011;45930;53.514;55.904;2023-07-28T04:17:54;38.28;;;24.95;;
60054;SDS011;45930;53.514;55.904;2023-07-28T04:18:54;34.92;;;26.13;;
60054;SDS011;45930;53.514;55.904;2023-07-28T04:19:56;33.88;;;23.63;;
60054;SDS011;45930;53.514;55.904;2023-07-28T04:20:57;37.30;;;26.58;;
60054;SDS011;45930;53.514;55.904;2023-07-28T04:21:58;35.88;;;24.05;;
60054;SDS011;45930;53.514;55.904;2023-07-28T04:22:58;36.33;;;24.98;;
60054;SDS011;45930;53.514;55.904;2023-07-28T04:24:00;34.85;;;24.48;;
60054;SDS011;45930;53.514;55.904;2023-07-28T04:25:01;47.28;;;24.95;;
60054;SDS011;45930;53.514;55.904;2023-07-28T04:26:02;32.35;;;23.98;;
60054;SDS011;45930;53.514;55.904;2023-07-28T04:27:03;34.75;;;24.95;;
60054;SDS011;45930;53.514;55.904;2023-07-28T04:28:04;37.17;;;24.83;;
60054;SDS011;45930;53.514;55.904;2023-07-28T04:29:05;40.47;;;25.35;;
60054;SDS011;45930;53.514;55.904;2023-07-28T04:30:06;35.80;;;25.13;;
60054;SDS011;45930;53.514;55.904;2023-07-28T04:31:07;39.78;;;24.90;;
60054;SDS011;45930;53.514;55.904;2023-07-28T04:32:08;39.03;;;25.33;;
60054;SDS011;45930;53.514;55.904;2023-07-28T04:33:09;36.75;;;24.08;;
60054;SDS011;45930;53.514;55.904;2023-07-28T04:34:09;35.55;;;24.38;;
60054;SDS011;45930;53.514;55.904;2023-07-28T04:35:10;39.60;;;25.42;;
60054;SDS011;45930;53.514;55.904;2023-07-28T04:36:11;35.63;;;25.58;;
60054;SDS011;45930;53.514;55.904;2023-07-28T04:37:12;35.20;;;25.38;;
60054;SDS011;45930;53.514;55.904;2023-07-28T04:38:13;35.47;;;25.15;;
60054;SDS011;45930;53.514;55.904;2023-07-28T04:39:13;43.92;;;26.33;;
60054;SDS011;45930;53.514;55.904;2023-07-28T04:40:14;34.78;;;25.52;;
60054;SDS011;45930;53.514;55.904;2023-07-28T04:41:15;36.22;;;25.17;;
60054;SDS011;45930;53.514;55.904;2023-07-28T04:42:16;37.78;;;23.92;;
60054;SDS011;45930;53.514;55.904;2023-07-28T04:43:17;34.92;;;23.90;;
60054;SDS011;45930;53.514;55.904;2023-07-28T04:44:18;33.83;;;24.17;;
60054;SDS011;45930;53.514;55.904;2023-07-28T04:45:20;36.88;;;25.35;;
60054;SDS011;45930;53.514;55.904;2023-07-28T04:46:21;37.22;;;25.05;;
60054;SDS011;45930;53.514;55.904;2023-07-28T04:47:22;40.28;;;24.13;;
60054;SDS011;45930;53.514;55.904;2023-07-28T04:48:22;39.45;;;25.08;;
60054;SDS011;45930;53.514;55.904;2023-07-28T04:49:23;39.47;;;25.48;;
60054;SDS011;45930;53.514;55.904;2023-07-28T04:50:24;33.60;;;25.30;;
60054;SDS011;45930;53.514;55.904;2023-07-28T04:51:25;42.05;;;28.10;;
60054;SDS011;45930;53.514;55.904;2023-07-28T04:52:26;37.17;;;25.85;;
60054;SDS011;45930;53.514;55.904;2023-07-28T04:53:26;38.30;;;25.73;;
60054;SDS011;45930;53.514;55.904;2023-07-28T04:54:27;43.80;;;27.17;;
60054;SDS011;45930;53.514;55.904;2023-07-28T04:55:28;38.95;;;26.23;;
60054;SDS011;45930;53.514;55.904;2023-07-28T04:56:29;37.95;;;25.40;;
60054;SDS011;45930;53.514;55.904;2023-07-28T04:57:30;42.17;;;25.52;;
60054;SDS011;45930;53.514;55.904;2023-07-28T04:58:30;37.33;;;26.17;;
60054;SDS011;45930;53.514;55.904;2023-07-28T04:59:31;37.58;;;25.00;;
60054;SDS011;45930;53.514;55.904;2023-07-28T05:00:35;38.83;;;26.33;;
60054;SDS011;45930;53.514;55.904;2023-07-28T05:01:35;40.22;;;26.98;;
60054;SDS011;45930;53.514;55.904;2023-07-28T05:02:36;35.28;;;26.25;;
60054;SDS011;45930;53.514;55.904;2023-07-28T05:03:37;36.95;;;26.33;;
60054;SDS011;45930;53.514;55.904;2023-07-28T05:04:38;36.03;;;25.40;;
60054;SDS011;45930;53.514;55.904;2023-07-28T05:05:38;39.15;;;24.23;;
60054;SDS011;45930;53.514;55.904;2023-07-28T05:06:43;41.58;;;26.02;;
60054;SDS011;45930;53.514;55.904;2023-07-28T05:07:44;37.80;;;25.38;;
60054;SDS011;45930;53.514;55.904;2023-07-28T05:08:45;33.90;;;20.83;;
60054;SDS011;45930;53.514;55.904;2023-07-28T05:09:45;38.72;;;23.58;;
60054;SDS011;45930;53.514;55.904;2023-07-28T05:10:46;37.65;;;26.38;;
60054;SDS011;45930;53.514;55.904;2023-07-28T05:11:47;36.63;;;25.52;;
60054;SDS011;45930;53.514;55.904;2023-07-28T05:12:48;34.22;;;24.83;;
60054;SDS011;45930;53.514;55.904;2023-07-28T05:13:48;34.13;;;24.58;;
60054;SDS011;45930;53.514;55.904;2023-07-28T05:14:49;40.67;;;24.88;;
60054;SDS011;45930;53.514;55.904;2023-07-28T05:15:50;36.22;;;24.75;;
60054;SDS011;45930;53.514;55.904;2023-07-28T05:16:51;37.47;;;24.40;;
60054;SDS011;45930;53.514;55.904;2023-07-28T05:17:52;35.35;;;23.40;;
60054;SDS011;45930;53.514;55.904;2023-07-28T05:18:53;44.45;;;23.83;;
60054;SDS011;45930;53.514;55.904;2023-07-28T05:19:53;35.85;;;23.35;;
60054;SDS011;45930;53.514;55.904;2023-07-28T05:20:54;38.60;;;25.00;;
60054;SDS011;45930;53.514;55.904;2023-07-28T05:21:55;35.40;;;24.55;;
60054;SDS011;45930;53.514;55.904;2023-07-28T05:22:56;37.85;;;24.20;;
60054;SDS011;45930;53.514;55.904;2023-07-28T05:23:57;33.63;;;22.50;;
60054;SDS011;45930;53.514;55.904;2023-07-28T05:24:58;34.35;;;23.50;;
60054;SDS011;45930;53.514;55.904;2023-07-28T05:25:58;36.58;;;24.10;;
60054;SDS011;45930;53.514;55.904;2023-07-28T05:26:59;36.25;;;23.52;;
60054;SDS011;45930;53.514;55.904;2023-07-28T05:28:00;37.75;;;26.10;;
60054;SDS011;45930;53.514;55.904;2023-07-28T05:29:01;36.03;;;25.40;;
60054;SDS011;45930;53.514;55.904;2023-07-28T05:30:01;38.47;;;25.65;;
60054;SDS011;45930;53.514;55.904;2023-07-28T05:31:06;40.70;;;24.73;;
60054;SDS011;45930;53.514;55.904;2023-07-28T05:32:07;35.55;;;23.95;;
60054;SDS011;45930;53.514;55.904;2023-07-28T05:33:08;35.92;;;24.05;;
60054;SDS011;45930;53.514;55.904;2023-07-28T05:34:09;35.15;;;24.45;;
60054;SDS011;45930;53.514;55.904;2023-07-28T05:35:12;34.72;;;25.08;;
60054;SDS011;45930;53.514;55.904;2023-07-28T05:36:13;30.15;;;23.70;;
60054;SDS011;45930;53.514;55.904;2023-07-28T05:37:14;100.43;;;28.48;;
60054;SDS011;45930;53.514;55.904;2023-07-28T05:38:15;63.72;;;26.00;;
60054;SDS011;45930;53.514;55.904;2023-07-28T05:39:16;44.58;;;25.42;;
60054;SDS011;45930;53.514;55.904;2023-07-28T05:40:16;34.20;;;24.25;;
60054;SDS011;45930;53.514;55.904;2023-07-28T05:41:17;36.97;;;25.65;;
60054;SDS011;45930;53.514;55.904;2023-07-28T05:42:18;37.70;;;25.33;;
60054;SDS011;45930;53.514;55.904;2023-07-28T05:43:19;35.00;;;24.63;;
60054;SDS011;45930;53.514;55.904;2023-07-28T05:44:19;40.25;;;26.23;;
60054;SDS011;45930;53.514;55.904;2023-07-28T05:45:20;33.42;;;24.17;;
60054;SDS011;45930;53.514;55.904;2023-07-28T05:46:21;36.25;;;25.10;;
60054;SDS011;45930;53.514;55.904;2023-07-28T05:47:22;36.47;;;24.80;;
60054;SDS011;45930;53.514;55.904;2023-07-28T05:48:23;36.97;;;24.63;;
60054;SDS011;45930;53.514;55.904;2023-07-28T05:49:23;37.08;;;23.67;;
60054;SDS011;45930;53.514;55.904;2023-07-28T05:50:24;32.72;;;24.27;;
60054;SDS011;45930;53.514;55.904;2023-07-28T05:51:25;32.88;;;24.27;;
60054;SDS011;45930;53.514;55.904;2023-07-28T05:52:26;35.55;;;24.95;;
60054;SDS011;45930;53.514;55.904;2023-07-28T05:53:27;41.78;;;25.70;;
60054;SDS011;45930;53.514;55.904;2023-07-28T05:54:28;58.03;;;33.65;;
60054;SDS011;45930;53.514;55.904;2023-07-28T05:55:29;37.53;;;27.35;;
60054;SDS011;45930;53.514;55.904;2023-07-28T05:56:30;37.00;;;26.02;;